sensor_id;sensor_type;location;lat;lon;timestamp;pressure;altitude;pressure_sealevel;temperature;humidity
6194;BME280;3130;41.564;23.280;2022-12-15T00:00:54;98214.06;;;8.89;100.00
6194;BME280;3130;41.564;23.280;2022-12-15T00:03:39;98204.75;;;8.88;100.00
6194;BME280;3130;41.564;23.280;2022-12-15T00:06:24;98197.88;;;8.76;99.64
6194;BME280;3130;41.564;23.280;2022-12-15T00:09:08;98200.97;;;8.81;99.79
6194;BME280;3130;41.564;23.280;2022-12-15T00:11:53;98203.03;;;8.89;100.00
6194;BME280;3130;41.564;23.280;2022-12-15T00:14:37;98201.91;;;8.93;100.00
6194;BME280;3130;41.564;23.280;2022-12-15T00:17:22;98196.09;;;8.91;100.00
6194;BME280;3130;41.564;23.280;2022-12-15T00:20:08;98198.84;;;8.88;100.00
6194;BME280;3130;41.564;23.280;2022-12-15T00:22:53;98183.88;;;8.82;100.00
6194;BME280;3130;41.564;23.280;2022-12-15T00:25:37;98187.31;;;8.95;100.00
6194;BME280;3130;41.564;23.280;2022-12-15T00:28:22;98213.09;;;9.04;100.00
6194;BME280;3130;41.564;23.280;2022-12-15T00:31:06;98207.03;;;9.05;100.00
6194;BME280;3130;41.564;23.280;2022-12-15T00:33:51;98199.91;;;9.10;99.75
6194;BME280;3130;41.564;23.280;2022-12-15T00:36:36;98210.13;;;9.10;99.81
6194;BME280;3130;41.564;23.280;2022-12-15T00:39:20;98210.66;;;9.15;99.51
6194;BME280;3130;41.564;23.280;2022-12-15T00:41:47;98209.81;;;9.14;99.42
6194;BME280;3130;41.564;23.280;2022-12-15T00:44:14;98207.91;;;9.18;99.26
6194;BME280;3130;41.564;23.280;2022-12-15T00:46:42;98148.50;;;8.88;99.25
6194;BME280;3130;41.564;23.280;2022-12-15T00:49:20;98074.25;;;8.40;99.13
6194;BME280;3130;41.564;23.280;2022-12-15T00:52:05;98092.25;;;8.63;99.58
6194;BME280;3130;41.564;23.280;2022-12-15T00:54:49;98128.28;;;8.98;99.76
6194;BME280;3130;41.564;23.280;2022-12-15T00:57:34;98158.59;;;9.16;99.83
6194;BME280;3130;41.564;23.280;2022-12-15T01:00:19;98169.63;;;9.29;99.70
6194;BME280;3130;41.564;23.280;2022-12-15T01:03:09;98178.84;;;9.31;99.45
6194;BME280;3130;41.564;23.280;2022-12-15T01:05:53;98184.66;;;9.33;99.29
6194;BME280;3130;41.564;23.280;2022-12-15T01:08:39;98157.69;;;9.29;99.27
6194;BME280;3130;41.564;23.280;2022-12-15T01:11:23;98168.13;;;9.39;99.33
6194;BME280;3130;41.564;23.280;2022-12-15T01:14:08;98180.69;;;9.42;98.85
6194;BME280;3130;41.564;23.280;2022-12-15T01:16:52;98187.84;;;9.49;98.63
6194;BME280;3130;41.564;23.280;2022-12-15T01:19:37;98172.31;;;9.40;98.50
6194;BME280;3130;41.564;23.280;2022-12-15T01:22:21;98193.28;;;9.45;98.74
6194;BME280;3130;41.564;23.280;2022-12-15T01:24:50;98157.44;;;9.32;98.95
6194;BME280;3130;41.564;23.280;2022-12-15T01:27:17;98167.09;;;9.54;99.07
6194;BME280;3130;41.564;23.280;2022-12-15T01:29:44;98159.28;;;9.43;99.01
6194;BME280;3130;41.564;23.280;2022-12-15T01:32:11;98175.47;;;9.43;99.38
6194;BME280;3130;41.564;23.280;2022-12-15T01:34:39;98109.19;;;9.03;98.91
6194;BME280;3130;41.564;23.280;2022-12-15T01:37:06;98170.25;;;9.45;99.14
6194;BME280;3130;41.564;23.280;2022-12-15T01:39:33;98176.91;;;9.47;99.08
6194;BME280;3130;41.564;23.280;2022-12-15T01:42:15;98095.47;;;9.04;99.45
6194;BME280;3130;41.564;23.280;2022-12-15T01:44:43;98172.59;;;9.48;99.32
6194;BME280;3130;41.564;23.280;2022-12-15T01:47:12;98180.06;;;9.51;99.17
6194;BME280;3130;41.564;23.280;2022-12-15T01:49:41;98163.88;;;9.50;99.06
6194;BME280;3130;41.564;23.280;2022-12-15T01:52:14;98138.34;;;9.38;99.46
6194;BME280;3130;41.564;23.280;2022-12-15T01:54:45;98141.41;;;9.30;99.65
6194;BME280;3130;41.564;23.280;2022-12-15T01:57:18;98136.16;;;9.19;100.00
6194;BME280;3130;41.564;23.280;2022-12-15T01:59:51;98147.31;;;9.18;100.00
6194;BME280;3130;41.564;23.280;2022-12-15T02:02:21;98160.44;;;9.39;100.00
6194;BME280;3130;41.564;23.280;2022-12-15T02:04:50;98088.50;;;9.06;100.00
6194;BME280;3130;41.564;23.280;2022-12-15T02:07:18;98142.53;;;9.39;100.00
6194;BME280;3130;41.564;23.280;2022-12-15T02:09:47;98138.09;;;9.41;100.00
6194;BME280;3130;41.564;23.280;2022-12-15T02:12:24;98145.56;;;9.44;100.00
6194;BME280;3130;41.564;23.280;2022-12-15T02:15:11;98145.38;;;9.47;100.00
6194;BME280;3130;41.564;23.280;2022-12-15T02:17:48;98160.41;;;9.51;100.00
6194;BME280;3130;41.564;23.280;2022-12-15T02:20:39;98156.00;;;9.53;100.00
6194;BME280;3130;41.564;23.280;2022-12-15T02:29:09;98139.31;;;9.60;99.71
6194;BME280;3130;41.564;23.280;2022-12-15T02:31:41;98129.41;;;9.56;99.90
6194;BME280;3130;41.564;23.280;2022-12-15T02:34:21;98117.25;;;9.34;99.94
6194;BME280;3130;41.564;23.280;2022-12-15T02:36:54;98131.53;;;9.49;100.00
6194;BME280;3130;41.564;23.280;2022-12-15T02:39:24;98065.00;;;9.13;100.00
6194;BME280;3130;41.564;23.280;2022-12-15T02:41:51;98125.94;;;9.44;100.00
6194;BME280;3130;41.564;23.280;2022-12-15T02:44:21;98120.31;;;9.52;100.00
6194;BME280;3130;41.564;23.280;2022-12-15T02:47:03;98138.41;;;9.49;100.00
6194;BME280;3130;41.564;23.280;2022-12-15T02:49:43;98129.50;;;9.42;100.00
6194;BME280;3130;41.564;23.280;2022-12-15T02:52:23;98134.63;;;9.54;100.00
6194;BME280;3130;41.564;23.280;2022-12-15T02:55:11;98132.25;;;9.51;100.00
6194;BME280;3130;41.564;23.280;2022-12-15T02:57:44;98122.56;;;9.44;100.00
6194;BME280;3130;41.564;23.280;2022-12-15T03:00:14;98117.56;;;9.42;100.00
6194;BME280;3130;41.564;23.280;2022-12-15T03:02:47;98134.03;;;9.38;100.00
6194;BME280;3130;41.564;23.280;2022-12-15T03:05:16;98111.31;;;9.34;100.00
6194;BME280;3130;41.564;23.280;2022-12-15T03:07:44;98126.03;;;9.43;100.00
6194;BME280;3130;41.564;23.280;2022-12-15T03:10:12;98033.00;;;8.83;100.00
6194;BME280;3130;41.564;23.280;2022-12-15T03:12:40;98138.09;;;9.41;100.00
6194;BME280;3130;41.564;23.280;2022-12-15T03:15:07;98132.78;;;9.44;100.00
6194;BME280;3130;41.564;23.280;2022-12-15T03:17:34;98121.94;;;9.40;100.00
6194;BME280;3130;41.564;23.280;2022-12-15T03:20:05;98119.59;;;9.37;100.00
6194;BME280;3130;41.564;23.280;2022-12-15T03:22:33;98106.00;;;9.24;100.00
6194;BME280;3130;41.564;23.280;2022-12-15T03:25:00;98120.63;;;9.35;100.00
6194;BME280;3130;41.564;23.280;2022-12-15T03:27:27;98123.69;;;9.40;100.00
6194;BME280;3130;41.564;23.280;2022-12-15T03:29:54;98131.59;;;9.37;100.00
6194;BME280;3130;41.564;23.280;2022-12-15T03:32:22;98130.94;;;9.33;100.00
6194;BME280;3130;41.564;23.280;2022-12-15T03:34:49;98132.59;;;9.34;100.00
6194;BME280;3130;41.564;23.280;2022-12-15T03:37:17;98108.16;;;9.18;100.00
6194;BME280;3130;41.564;23.280;2022-12-15T03:39:44;98094.44;;;9.06;100.00
6194;BME280;3130;41.564;23.280;2022-12-15T03:42:12;98119.91;;;9.20;100.00
6194;BME280;3130;41.564;23.280;2022-12-15T03:44:59;98140.56;;;9.17;100.00
6194;BME280;3130;41.564;23.280;2022-12-15T03:47:26;98141.41;;;9.18;100.00
6194;BME280;3130;41.564;23.280;2022-12-15T03:49:53;98113.78;;;8.98;100.00
6194;BME280;3130;41.564;23.280;2022-12-15T03:52:21;98152.56;;;9.17;100.00
6194;BME280;3130;41.564;23.280;2022-12-15T03:54:48;98153.88;;;9.22;100.00
6194;BME280;3130;41.564;23.280;2022-12-15T03:57:15;98146.00;;;9.25;100.00
6194;BME280;3130;41.564;23.280;2022-12-15T03:59:42;98124.72;;;9.12;100.00
6194;BME280;3130;41.564;23.280;2022-12-15T04:02:10;98135.44;;;9.17;100.00
6194;BME280;3130;41.564;23.280;2022-12-15T04:04:37;98141.41;;;9.18;100.00
6194;BME280;3130;41.564;23.280;2022-12-15T04:07:04;98147.53;;;9.28;100.00
6194;BME280;3130;41.564;23.280;2022-12-15T04:09:33;98079.09;;;8.82;100.00
6194;BME280;3130;41.564;23.280;2022-12-15T04:11:59;98161.97;;;9.29;100.00
6194;BME280;3130;41.564;23.280;2022-12-15T04:14:27;98166.34;;;9.27;100.00
6194;BME280;3130;41.564;23.280;2022-12-15T04:16:54;98097.50;;;8.99;100.00
6194;BME280;3130;41.564;23.280;2022-12-15T04:19:21;98149.50;;;9.37;100.00
6194;BME280;3130;41.564;23.280;2022-12-15T04:22:06;98155.53;;;9.36;100.00
6194;BME280;3130;41.564;23.280;2022-12-15T04:24:35;98182.13;;;9.46;100.00
6194;BME280;3130;41.564;23.280;2022-12-15T04:27:19;98192.66;;;9.54;100.00
6194;BME280;3130;41.564;23.280;2022-12-15T04:30:05;98177.00;;;9.58;100.00
6194;BME280;3130;41.564;23.280;2022-12-15T04:32:49;98185.91;;;9.53;100.00
6194;BME280;3130;41.564;23.280;2022-12-15T04:35:33;98189.78;;;9.46;100.00
6194;BME280;3130;41.564;23.280;2022-12-15T04:38:18;98178.44;;;9.37;100.00
6194;BME280;3130;41.564;23.280;2022-12-15T04:41:04;98181.91;;;9.36;100.00
6194;BME280;3130;41.564;23.280;2022-12-15T04:43:48;98207.81;;;9.57;100.00
6194;BME280;3130;41.564;23.280;2022-12-15T04:46:33;98192.34;;;9.46;100.00
6194;BME280;3130;41.564;23.280;2022-12-15T04:49:17;98200.03;;;9.46;100.00
6194;BME280;3130;41.564;23.280;2022-12-15T04:52:02;98205.66;;;9.51;100.00
6194;BME280;3130;41.564;23.280;2022-12-15T04:54:46;98195.72;;;9.59;100.00
6194;BME280;3130;41.564;23.280;2022-12-15T04:57:32;98192.66;;;9.54;100.00
6194;BME280;3130;41.564;23.280;2022-12-15T05:00:16;98213.63;;;9.59;100.00
6194;BME280;3130;41.564;23.280;2022-12-15T05:03:03;98201.28;;;9.53;100.00
6194;BME280;3130;41.564;23.280;2022-12-15T05:05:47;98191.75;;;9.42;100.00
6194;BME280;3130;41.564;23.280;2022-12-15T05:08:32;98184.06;;;9.42;100.00
6194;BME280;3130;41.564;23.280;2022-12-15T05:11:16;98203.41;;;9.59;100.00
6194;BME280;3130;41.564;23.280;2022-12-15T05:14:02;98165.44;;;9.40;100.00
6194;BME280;3130;41.564;23.280;2022-12-15T05:16:46;98193.16;;;9.59;100.00
6194;BME280;3130;41.564;23.280;2022-12-15T05:19:30;98111.44;;;9.07;100.00
6194;BME280;3130;41.564;23.280;2022-12-15T05:22:15;98208.44;;;9.73;100.00
6194;BME280;3130;41.564;23.280;2022-12-15T05:24:59;98209.03;;;9.76;100.00
6194;BME280;3130;41.564;23.280;2022-12-15T05:27:44;98218.94;;;9.81;100.00
6194;BME280;3130;41.564;23.280;2022-12-15T05:30:29;98232.59;;;9.81;100.00
6194;BME280;3130;41.564;23.280;2022-12-15T05:33:14;98232.69;;;9.80;100.00
6194;BME280;3130;41.564;23.280;2022-12-15T05:35:41;98222.63;;;9.77;100.00
6194;BME280;3130;41.564;23.280;2022-12-15T05:38:08;98166.34;;;9.39;100.00
6194;BME280;3130;41.564;23.280;2022-12-15T05:40:35;98225.63;;;9.83;100.00
6194;BME280;3130;41.564;23.280;2022-12-15T05:43:02;98231.22;;;9.88;100.00
6194;BME280;3130;41.564;23.280;2022-12-15T05:45:30;98224.19;;;9.92;100.00
6194;BME280;3130;41.564;23.280;2022-12-15T05:47:58;98133.28;;;9.49;100.00
6194;BME280;3130;41.564;23.280;2022-12-15T05:50:25;98222.09;;;9.97;100.00
6194;BME280;3130;41.564;23.280;2022-12-15T05:52:53;98181.91;;;9.74;100.00
6194;BME280;3130;41.564;23.280;2022-12-15T05:55:20;98257.66;;;10.13;100.00
6194;BME280;3130;41.564;23.280;2022-12-15T05:57:50;98240.16;;;10.07;100.00
6194;BME280;3130;41.564;23.280;2022-12-15T06:00:18;98273.00;;;10.26;100.00
6194;BME280;3130;41.564;23.280;2022-12-15T06:02:46;98258.25;;;10.29;100.00
6194;BME280;3130;41.564;23.280;2022-12-15T06:05:14;98263.38;;;10.29;100.00
6194;BME280;3130;41.564;23.280;2022-12-15T06:07:41;98279.38;;;10.33;100.00
6194;BME280;3130;41.564;23.280;2022-12-15T06:10:08;98279.03;;;10.37;100.00
6194;BME280;3130;41.564;23.280;2022-12-15T06:12:36;98258.69;;;10.23;100.00
6194;BME280;3130;41.564;23.280;2022-12-15T06:15:04;98288.97;;;10.42;100.00
6194;BME280;3130;41.564;23.280;2022-12-15T06:17:31;98288.56;;;10.35;100.00
6194;BME280;3130;41.564;23.280;2022-12-15T06:20:00;98284.09;;;10.26;100.00
6194;BME280;3130;41.564;23.280;2022-12-15T06:22:27;98312.47;;;10.36;100.00
6194;BME280;3130;41.564;23.280;2022-12-15T06:24:54;98306.72;;;10.32;100.00
6194;BME280;3130;41.564;23.280;2022-12-15T06:27:21;98307.13;;;10.39;100.00
6194;BME280;3130;41.564;23.280;2022-12-15T06:29:49;98282.34;;;10.27;100.00
6194;BME280;3130;41.564;23.280;2022-12-15T06:32:16;98303.75;;;10.38;100.00
6194;BME280;3130;41.564;23.280;2022-12-15T06:34:43;98301.06;;;10.40;100.00
6194;BME280;3130;41.564;23.280;2022-12-15T06:37:11;98300.97;;;10.41;100.00
6194;BME280;3130;41.564;23.280;2022-12-15T06:39:38;98300.66;;;10.46;100.00
6194;BME280;3130;41.564;23.280;2022-12-15T06:42:05;98305.56;;;10.49;100.00
6194;BME280;3130;41.564;23.280;2022-12-15T06:44:32;98307.00;;;10.53;100.00
6194;BME280;3130;41.564;23.280;2022-12-15T06:46:59;98313.66;;;10.55;100.00
6194;BME280;3130;41.564;23.280;2022-12-15T06:49:26;98320.94;;;10.61;100.00
6194;BME280;3130;41.564;23.280;2022-12-15T06:51:53;98306.88;;;10.54;100.00
6194;BME280;3130;41.564;23.280;2022-12-15T06:54:22;98328.47;;;10.75;100.00
6194;BME280;3130;41.564;23.280;2022-12-15T06:56:50;98270.44;;;10.38;100.00
6194;BME280;3130;41.564;23.280;2022-12-15T06:59:17;98327.56;;;10.76;100.00
6194;BME280;3130;41.564;23.280;2022-12-15T07:01:44;98304.38;;;10.65;100.00
6194;BME280;3130;41.564;23.280;2022-12-15T07:04:11;98299.72;;;10.59;100.00
6194;BME280;3130;41.564;23.280;2022-12-15T07:06:38;98336.19;;;10.63;100.00
6194;BME280;3130;41.564;23.280;2022-12-15T07:09:11;98354.78;;;10.54;100.00
6194;BME280;3130;41.564;23.280;2022-12-15T07:11:42;98257.56;;;9.90;100.00
6194;BME280;3130;41.564;23.280;2022-12-15T07:14:09;98343.72;;;10.41;100.00
6194;BME280;3130;41.564;23.280;2022-12-15T07:16:36;98371.28;;;10.50;100.00
6194;BME280;3130;41.564;23.280;2022-12-15T07:19:03;98351.13;;;10.33;100.00
6194;BME280;3130;41.564;23.280;2022-12-15T07:21:31;98377.22;;;10.50;100.00
6194;BME280;3130;41.564;23.280;2022-12-15T07:23:58;98375.19;;;10.55;100.00
6194;BME280;3130;41.564;23.280;2022-12-15T07:26:25;98377.00;;;10.66;100.00
6194;BME280;3130;41.564;23.280;2022-12-15T07:28:53;98338.75;;;10.63;100.00
6194;BME280;3130;41.564;23.280;2022-12-15T07:31:21;98360.34;;;10.84;100.00
6194;BME280;3130;41.564;23.280;2022-12-15T07:33:48;98307.06;;;10.64;100.00
6194;BME280;3130;41.564;23.280;2022-12-15T07:36:16;98319.75;;;10.78;100.00
6194;BME280;3130;41.564;23.280;2022-12-15T07:38:44;98366.22;;;11.09;100.00
6194;BME280;3130;41.564;23.280;2022-12-15T07:41:11;98351.75;;;11.08;100.00
6194;BME280;3130;41.564;23.280;2022-12-15T07:43:38;98367.81;;;11.22;100.00
6194;BME280;3130;41.564;23.280;2022-12-15T07:46:06;98327.53;;;11.12;100.00
6194;BME280;3130;41.564;23.280;2022-12-15T07:48:33;98351.31;;;11.37;100.00
6194;BME280;3130;41.564;23.280;2022-12-15T07:51:04;98353.81;;;11.50;100.00
6194;BME280;3130;41.564;23.280;2022-12-15T07:53:32;98370.72;;;11.65;100.00
6194;BME280;3130;41.564;23.280;2022-12-15T07:55:59;98375.16;;;11.74;100.00
6194;BME280;3130;41.564;23.280;2022-12-15T07:58:27;98354.59;;;11.63;100.00
6194;BME280;3130;41.564;23.280;2022-12-15T08:00:58;98390.16;;;11.91;99.29
6194;BME280;3130;41.564;23.280;2022-12-15T08:03:27;98399.41;;;11.93;99.25
6194;BME280;3130;41.564;23.280;2022-12-15T08:05:54;98407.81;;;11.95;98.63
6194;BME280;3130;41.564;23.280;2022-12-15T08:08:21;98413.91;;;11.94;99.25
6194;BME280;3130;41.564;23.280;2022-12-15T08:10:49;98397.28;;;11.87;99.42
6194;BME280;3130;41.564;23.280;2022-12-15T08:13:16;98360.47;;;11.76;99.01
6194;BME280;3130;41.564;23.280;2022-12-15T08:15:43;98391.16;;;12.11;99.53
6194;BME280;3130;41.564;23.280;2022-12-15T08:18:10;98366.97;;;12.03;99.33
6194;BME280;3130;41.564;23.280;2022-12-15T08:20:39;98390.00;;;12.26;98.92
6194;BME280;3130;41.564;23.280;2022-12-15T08:23:06;98396.13;;;12.36;99.11
6194;BME280;3130;41.564;23.280;2022-12-15T08:25:33;98391.56;;;12.51;98.96
6194;BME280;3130;41.564;23.280;2022-12-15T08:28:01;98400.00;;;12.64;97.94
6194;BME280;3130;41.564;23.280;2022-12-15T08:30:29;98405.59;;;12.69;96.56
6194;BME280;3130;41.564;23.280;2022-12-15T08:32:57;98400.78;;;12.64;96.40
6194;BME280;3130;41.564;23.280;2022-12-15T08:35:25;98413.19;;;12.81;95.99
6194;BME280;3130;41.564;23.280;2022-12-15T08:37:53;98367.81;;;12.47;95.45
6194;BME280;3130;41.564;23.280;2022-12-15T08:40:20;98440.09;;;12.88;95.00
6194;BME280;3130;41.564;23.280;2022-12-15T08:42:47;98364.88;;;12.30;94.80
6194;BME280;3130;41.564;23.280;2022-12-15T08:45:14;98452.25;;;12.64;95.19
6194;BME280;3130;41.564;23.280;2022-12-15T08:47:44;98443.81;;;12.51;95.97
6194;BME280;3130;41.564;23.280;2022-12-15T08:50:11;98412.31;;;12.15;96.51
6194;BME280;3130;41.564;23.280;2022-12-15T08:52:38;98458.25;;;12.19;96.43
6194;BME280;3130;41.564;23.280;2022-12-15T08:55:09;98398.13;;;11.64;97.48
6194;BME280;3130;41.564;23.280;2022-12-15T08:57:37;98435.94;;;11.86;98.33
6194;BME280;3130;41.564;23.280;2022-12-15T09:00:06;98386.59;;;11.46;98.93
6194;BME280;3130;41.564;23.280;2022-12-15T09:02:33;98386.16;;;11.52;99.06
6194;BME280;3130;41.564;23.280;2022-12-15T09:05:00;98420.38;;;11.76;99.36
6194;BME280;3130;41.564;23.280;2022-12-15T09:07:27;98440.13;;;11.87;99.24
6194;BME280;3130;41.564;23.280;2022-12-15T09:09:54;98431.84;;;11.83;98.67
6194;BME280;3130;41.564;23.280;2022-12-15T09:12:23;98444.34;;;11.88;99.42
6194;BME280;3130;41.564;23.280;2022-12-15T09:14:50;98443.41;;;11.89;99.51
6194;BME280;3130;41.564;23.280;2022-12-15T09:17:17;98431.28;;;11.91;98.98
6194;BME280;3130;41.564;23.280;2022-12-15T09:19:45;98433.63;;;11.94;98.34
6194;BME280;3130;41.564;23.280;2022-12-15T09:22:12;98427.78;;;11.92;98.67
6194;BME280;3130;41.564;23.280;2022-12-15T09:24:39;98440.34;;;12.07;98.45
6194;BME280;3130;41.564;23.280;2022-12-15T09:27:06;98447.25;;;12.17;98.13
6194;BME280;3130;41.564;23.280;2022-12-15T09:29:36;98433.94;;;12.23;98.09
6194;BME280;3130;41.564;23.280;2022-12-15T09:32:03;98444.03;;;12.37;97.06
6194;BME280;3130;41.564;23.280;2022-12-15T09:34:31;98444.72;;;12.39;95.87
6194;BME280;3130;41.564;23.280;2022-12-15T09:36:58;98425.84;;;12.17;94.03
6194;BME280;3130;41.564;23.280;2022-12-15T09:39:26;98440.56;;;12.15;94.95
6194;BME280;3130;41.564;23.280;2022-12-15T09:41:56;98456.47;;;12.20;95.79
6194;BME280;3130;41.564;23.280;2022-12-15T09:44:26;98450.63;;;12.18;96.25
6194;BME280;3130;41.564;23.280;2022-12-15T09:47:04;98445.41;;;12.30;96.45
6194;BME280;3130;41.564;23.280;2022-12-15T09:49:45;98446.34;;;12.40;95.81
6194;BME280;3130;41.564;23.280;2022-12-15T09:52:16;98444.97;;;12.47;95.33
6194;BME280;3130;41.564;23.280;2022-12-15T09:54:44;98451.41;;;12.53;93.67
6194;BME280;3130;41.564;23.280;2022-12-15T09:57:18;98449.44;;;12.67;93.27
6194;BME280;3130;41.564;23.280;2022-12-15T10:00:12;98464.78;;;12.80;92.55
6194;BME280;3130;41.564;23.280;2022-12-15T10:03:00;98454.34;;;12.81;92.76
6194;BME280;3130;41.564;23.280;2022-12-15T10:23:48;98457.28;;;12.88;93.18
6194;BME280;3130;41.564;23.280;2022-12-15T10:26:19;98347.84;;;12.40;92.74
6194;BME280;3130;41.564;23.280;2022-12-15T10:29:01;98451.53;;;13.28;92.33
6194;BME280;3130;41.564;23.280;2022-12-15T10:31:35;98481.97;;;13.34;90.95
6194;BME280;3130;41.564;23.280;2022-12-15T10:34:09;98474.59;;;13.40;91.22
6194;BME280;3130;41.564;23.280;2022-12-15T10:36:49;98448.72;;;13.42;90.73
6194;BME280;3130;41.564;23.280;2022-12-15T10:39:19;98463.44;;;13.51;89.21
6194;BME280;3130;41.564;23.280;2022-12-15T10:42:10;98461.34;;;13.45;89.98
6194;BME280;3130;41.564;23.280;2022-12-15T10:44:39;98465.06;;;13.52;90.45
6194;BME280;3130;41.564;23.280;2022-12-15T10:47:13;98475.72;;;13.58;89.47
6194;BME280;3130;41.564;23.280;2022-12-15T10:49:42;98483.81;;;13.54;88.82
6194;BME280;3130;41.564;23.280;2022-12-15T10:52:16;98475.25;;;13.53;89.77
6194;BME280;3130;41.564;23.280;2022-12-15T10:54:47;98466.34;;;13.57;89.57
6194;BME280;3130;41.564;23.280;2022-12-15T10:57:16;98456.75;;;13.59;88.67
6194;BME280;3130;41.564;23.280;2022-12-15T10:59:44;98448.91;;;13.61;87.94
6194;BME280;3130;41.564;23.280;2022-12-15T11:02:26;98461.38;;;13.76;88.01
6194;BME280;3130;41.564;23.280;2022-12-15T11:04:58;98463.34;;;13.84;87.50
6194;BME280;3130;41.564;23.280;2022-12-15T11:07:31;98442.09;;;13.91;87.36
6194;BME280;3130;41.564;23.280;2022-12-15T11:10:08;98414.81;;;14.09;87.45
6194;BME280;3130;41.564;23.280;2022-12-15T11:12:39;98454.00;;;14.55;86.63
6194;BME280;3130;41.564;23.280;2022-12-15T11:15:43;98446.47;;;14.72;85.08
6194;BME280;3130;41.564;23.280;2022-12-15T11:18:19;98445.41;;;14.75;83.91
6194;BME280;3130;41.564;23.280;2022-12-15T11:20:52;98436.69;;;14.66;84.01
6194;BME280;3130;41.564;23.280;2022-12-15T11:23:25;98456.53;;;14.75;83.93
6194;BME280;3130;41.564;23.280;2022-12-15T11:26:00;98437.72;;;14.64;84.49
6194;BME280;3130;41.564;23.280;2022-12-15T11:28:33;98442.25;;;14.71;84.30
6194;BME280;3130;41.564;23.280;2022-12-15T11:31:19;98445.69;;;14.81;83.76
6194;BME280;3130;41.564;23.280;2022-12-15T11:33:50;98446.31;;;14.64;84.45
6194;BME280;3130;41.564;23.280;2022-12-15T11:36:30;98447.75;;;14.57;85.30
6194;BME280;3130;41.564;23.280;2022-12-15T11:39:07;98450.03;;;14.51;85.16
6194;BME280;3130;41.564;23.280;2022-12-15T11:41:48;98451.78;;;14.50;86.13
6194;BME280;3130;41.564;23.280;2022-12-15T11:44:24;98445.00;;;14.49;85.96
6194;BME280;3130;41.564;23.280;2022-12-15T11:47:02;98427.00;;;14.38;85.92
6194;BME280;3130;41.564;23.280;2022-12-15T11:50:12;98442.44;;;14.59;86.21
6194;BME280;3130;41.564;23.280;2022-12-15T11:52:53;98428.81;;;14.47;85.46
6194;BME280;3130;41.564;23.280;2022-12-15T11:55:29;98450.22;;;14.68;86.07
6194;BME280;3130;41.564;23.280;2022-12-15T11:58:19;98395.88;;;14.60;85.81
6194;BME280;3130;41.564;23.280;2022-12-15T12:00:56;98435.72;;;14.97;85.79
6194;BME280;3130;41.564;23.280;2022-12-15T12:03:33;98412.91;;;15.02;85.59
6194;BME280;3130;41.564;23.280;2022-12-15T12:06:11;98434.34;;;15.32;84.37
6194;BME280;3130;41.564;23.280;2022-12-15T12:09:02;98430.72;;;15.44;83.31
6194;BME280;3130;41.564;23.280;2022-12-15T12:11:39;98435.75;;;15.55;82.41
6194;BME280;3130;41.564;23.280;2022-12-15T12:14:18;98422.81;;;15.55;82.16
6194;BME280;3130;41.564;23.280;2022-12-15T12:16:56;98406.50;;;15.55;81.88
6194;BME280;3130;41.564;23.280;2022-12-15T12:19:30;98441.47;;;15.78;81.03
6194;BME280;3130;41.564;23.280;2022-12-15T12:22:03;98439.72;;;15.78;81.43
6194;BME280;3130;41.564;23.280;2022-12-15T12:24:39;98436.19;;;15.70;80.51
6194;BME280;3130;41.564;23.280;2022-12-15T12:27:11;98402.31;;;15.14;80.79
6194;BME280;3130;41.564;23.280;2022-12-15T12:29:44;98401.97;;;14.89;82.27
6194;BME280;3130;41.564;23.280;2022-12-15T12:32:15;98397.59;;;14.80;82.99
6194;BME280;3130;41.564;23.280;2022-12-15T12:34:53;98449.19;;;15.10;83.44
6194;BME280;3130;41.564;23.280;2022-12-15T12:37:25;98394.72;;;14.74;83.70
6194;BME280;3130;41.564;23.280;2022-12-15T12:39:58;98443.78;;;15.13;83.71
6194;BME280;3130;41.564;23.280;2022-12-15T12:42:30;98450.78;;;15.31;83.38
6194;BME280;3130;41.564;23.280;2022-12-15T12:45:03;98447.16;;;15.43;82.95
6194;BME280;3130;41.564;23.280;2022-12-15T12:47:33;98421.31;;;15.43;82.43
6194;BME280;3130;41.564;23.280;2022-12-15T12:50:05;98445.28;;;15.64;81.99
6194;BME280;3130;41.564;23.280;2022-12-15T12:52:35;98430.44;;;15.57;82.04
6194;BME280;3130;41.564;23.280;2022-12-15T12:55:18;98449.78;;;15.72;81.63
6194;BME280;3130;41.564;23.280;2022-12-15T12:57:49;98454.66;;;15.75;81.19
6194;BME280;3130;41.564;23.280;2022-12-15T13:00:20;98461.75;;;15.73;82.10
6194;BME280;3130;41.564;23.280;2022-12-15T13:03:08;98443.38;;;15.66;81.67
6194;BME280;3130;41.564;23.280;2022-12-15T13:05:36;98401.44;;;15.44;81.57
6194;BME280;3130;41.564;23.280;2022-12-15T13:08:25;98463.81;;;15.88;81.64
6194;BME280;3130;41.564;23.280;2022-12-15T13:10:53;98458.63;;;15.88;81.53
6194;BME280;3130;41.564;23.280;2022-12-15T13:13:42;98440.69;;;15.77;80.21
6194;BME280;3130;41.564;23.280;2022-12-15T13:16:21;98474.03;;;15.90;80.30
6194;BME280;3130;41.564;23.280;2022-12-15T13:19:00;98477.69;;;15.78;81.08
6194;BME280;3130;41.564;23.280;2022-12-15T13:21:51;98486.25;;;15.78;80.99
6194;BME280;3130;41.564;23.280;2022-12-15T13:24:29;98462.56;;;15.64;81.74
6194;BME280;3130;41.564;23.280;2022-12-15T13:27:10;98460.09;;;15.53;82.10
6194;BME280;3130;41.564;23.280;2022-12-15T13:29:54;98486.66;;;15.74;82.40
6194;BME280;3130;41.564;23.280;2022-12-15T13:32:28;98485.69;;;15.75;81.75
6194;BME280;3130;41.564;23.280;2022-12-15T13:34:55;98424.41;;;15.28;81.90
6194;BME280;3130;41.564;23.280;2022-12-15T13:37:45;98497.66;;;15.66;81.51
6194;BME280;3130;41.564;23.280;2022-12-15T13:40:28;98497.34;;;15.50;81.91
6194;BME280;3130;41.564;23.280;2022-12-15T13:43:05;98505.06;;;15.41;82.59
6194;BME280;3130;41.564;23.280;2022-12-15T13:45:43;98490.88;;;15.26;83.61
6194;BME280;3130;41.564;23.280;2022-12-15T13:48:32;98518.81;;;15.41;83.60
6194;BME280;3130;41.564;23.280;2022-12-15T13:53:57;98533.81;;;15.57;83.11
6194;BME280;3130;41.564;23.280;2022-12-15T13:56:45;98541.59;;;15.66;82.63
6194;BME280;3130;41.564;23.280;2022-12-15T13:59:30;98540.09;;;15.64;82.66
6194;BME280;3130;41.564;23.280;2022-12-15T14:02:01;98456.69;;;15.13;81.87
6194;BME280;3130;41.564;23.280;2022-12-15T14:04:30;98460.75;;;15.06;82.22
6194;BME280;3130;41.564;23.280;2022-12-15T14:07:00;98479.94;;;15.13;82.31
6194;BME280;3130;41.564;23.280;2022-12-15T14:09:29;98534.72;;;15.37;82.72
6194;BME280;3130;41.564;23.280;2022-12-15T14:11:58;98541.59;;;15.27;83.15